createdAt,value
2022-08-09T00:00:05.833Z,52.65
2022-08-09T00:02:49.301Z,52.76
2022-08-09T00:06:18.497Z,52.99
2022-08-09T00:08:31.565Z,53.36
2022-08-09T00:10:59.424Z,53.45
2022-08-09T00:13:28.201Z,53.55
2022-08-09T00:16:02.649Z,53.67
2022-08-09T00:18:35.694Z,53.82
2022-08-09T00:21:08.647Z,54.05
2022-08-09T00:23:57.894Z,54.13
2022-08-09T00:26:32.262Z,54.27
2022-08-09T00:29:03.843Z,54.51
2022-08-09T00:31:57.081Z,54.47
2022-08-09T00:34:26.605Z,54.52
2022-08-09T00:36:53.523Z,54.52
2022-08-09T00:40:12.293Z,54.64
2022-08-09T00:44:16.717Z,54.69
2022-08-09T00:44:55.822Z,54.78
2022-08-09T00:47:24.795Z,54.87
2022-08-09T00:49:54.788Z,54.97
2022-08-09T00:52:30.551Z,55.00
2022-08-09T00:55:01.264Z,55.08
2022-08-09T00:57:34.555Z,55.37
2022-08-09T01:00:21.725Z,55.41
2022-08-09T01:03:01.963Z,55.43
2022-08-09T01:05:51.936Z,55.60
2022-08-09T01:08:48.906Z,55.85
2022-08-09T01:11:56.047Z,55.87
2022-08-09T01:14:41.674Z,55.93
2022-08-09T01:17:19.484Z,56.10
2022-08-09T01:20:02.742Z,56.37
2022-08-09T01:22:52.100Z,56.40
2022-08-09T01:25:42.223Z,56.49
2022-08-09T01:28:17.147Z,56.66
2022-08-09T01:30:51.905Z,56.76
2022-08-09T01:33:24.416Z,56.77
2022-08-09T01:36:13.703Z,56.99
2022-08-09T01:38:46.585Z,57.12
2022-08-09T01:41:14.589Z,57.16
2022-08-09T01:43:50.549Z,57.20
2022-08-09T01:46:27.137Z,57.18
2022-08-09T01:48:59.793Z,57.15
2022-08-09T01:51:32.156Z,57.34
2022-08-09T01:54:02.744Z,57.66
2022-08-09T01:56:36.410Z,57.68
2022-08-09T01:59:10.391Z,57.89
2022-08-09T02:01:59.278Z,58.06
2022-08-09T02:04:28.621Z,58.24
2022-08-09T02:07:17.884Z,58.26
2022-08-09T02:10:13.781Z,58.53
2022-08-09T02:12:44.714Z,58.45
2022-08-09T02:15:16.797Z,58.51
2022-08-09T02:18:01.445Z,58.57
2022-08-09T02:20:45.448Z,58.63
2022-08-09T02:23:42.748Z,58.69
2022-08-09T02:26:27.287Z,58.79
2022-08-09T02:28:59.987Z,58.89
2022-08-09T02:31:41.138Z,58.90
2022-08-09T02:34:25.738Z,58.95
2022-08-09T02:37:06.862Z,58.97
2022-08-09T02:39:45.270Z,59.06
2022-08-09T02:42:24.870Z,59.12
2022-08-09T02:45:07.848Z,59.21
2022-08-09T02:47:57.420Z,59.37
2022-08-09T02:50:29.514Z,59.34
2022-08-09T02:53:25.715Z,59.39
2022-08-09T02:55:57.923Z,59.44
2022-08-09T02:58:36.805Z,59.41
2022-08-09T03:01:11.066Z,59.54
2022-08-09T03:04:17.131Z,59.66
2022-08-09T03:06:33.110Z,59.76
2022-08-09T03:09:01.803Z,59.70
2022-08-09T03:11:29.778Z,59.87
2022-08-09T03:14:18.381Z,59.99
2022-08-09T03:16:48.210Z,60.02
2022-08-09T03:19:52.418Z,60.19
2022-08-09T03:22:12.086Z,60.38
2022-08-09T03:24:52.722Z,60.48
2022-08-09T03:27:45.186Z,60.62
2022-08-09T03:30:14.234Z,60.67
2022-08-09T03:32:57.593Z,60.88
2022-08-09T03:35:44.306Z,60.89
2022-08-09T03:38:16.097Z,60.72
2022-08-09T03:40:56.015Z,60.84
2022-08-09T03:43:22.855Z,60.84
2022-08-09T03:46:13.687Z,60.88
2022-08-09T03:48:43.042Z,60.88
2022-08-09T03:51:56.040Z,60.82
2022-08-09T03:54:10.897Z,60.79
2022-08-09T03:56:41.208Z,60.78
2022-08-09T03:59:21.085Z,60.48
2022-08-09T04:01:59.272Z,60.42
2022-08-09T04:04:36.167Z,60.50
2022-08-09T04:07:06.499Z,60.35
2022-08-09T04:09:44.445Z,60.40
2022-08-09T04:12:44.663Z,60.41
2022-08-09T04:15:17.258Z,60.38
2022-08-09T04:18:00.462Z,60.33
2022-08-09T04:20:28.887Z,60.25
2022-08-09T04:22:56.236Z,60.23
2022-08-09T04:25:23.444Z,60.34
2022-08-09T04:27:50.384Z,60.46
2022-08-09T04:30:20.903Z,60.53
2022-08-09T04:32:51.256Z,60.66
2022-08-09T04:35:21.798Z,60.61
2022-08-09T04:37:49.890Z,60.63
2022-08-09T04:40:28.934Z,60.81
2022-08-09T04:43:04.030Z,60.96
2022-08-09T04:45:35.956Z,60.82
2022-08-09T04:48:19.710Z,60.81
2022-08-09T04:50:46.590Z,60.98
2022-08-09T04:53:17.285Z,61.16
2022-08-09T04:55:58.260Z,61.20
2022-08-09T04:58:29.850Z,61.16
2022-08-09T05:01:00.040Z,61.15
2022-08-09T05:03:40.034Z,61.10
2022-08-09T05:06:11.314Z,60.93
2022-08-09T05:08:38.893Z,60.75
2022-08-09T05:11:14.643Z,60.74
2022-08-09T05:13:43.228Z,60.65
2022-08-09T05:16:10.329Z,60.77
2022-08-09T05:18:57.376Z,60.71
2022-08-09T05:21:29.796Z,60.68
2022-08-09T05:24:01.498Z,60.40
2022-08-09T05:26:37.166Z,60.37
2022-08-09T05:29:21.483Z,60.41
2022-08-09T05:31:57.521Z,60.22
2022-08-09T05:34:31.694Z,60.41
2022-08-09T05:37:05.970Z,60.02
2022-08-09T05:39:43.153Z,60.05
2022-08-09T05:42:21.009Z,60.00
2022-08-09T05:44:54.134Z,60.10
2022-08-09T05:47:23.323Z,59.75
2022-08-09T05:50:32.393Z,59.68
2022-08-09T05:52:44.238Z,59.44
2022-08-09T05:55:20.668Z,59.52
2022-08-09T05:57:57.659Z,59.42
2022-08-09T06:00:28.760Z,59.49
2022-08-09T06:03:01.512Z,59.45
2022-08-09T06:05:50.408Z,59.42
2022-08-09T06:08:19.900Z,59.33
2022-08-09T06:10:57.094Z,59.33
2022-08-09T06:13:28.276Z,59.20
2022-08-09T06:16:05.340Z,59.00
2022-08-09T06:18:33.769Z,58.86
2022-08-09T06:21:02.055Z,58.76
2022-08-09T06:23:55.209Z,58.70
2022-08-09T06:26:22.765Z,58.90
2022-08-09T06:28:59.266Z,58.96
2022-08-09T06:31:30.708Z,58.94
2022-08-09T06:33:58.790Z,58.81
2022-08-09T06:36:27.210Z,59.00
2022-08-09T06:38:57.933Z,58.79
2022-08-09T06:42:07.688Z,58.60
2022-08-09T06:44:18.387Z,58.73
2022-08-09T06:46:45.829Z,58.83
2022-08-09T06:49:16.217Z,58.64
2022-08-09T06:51:49.757Z,58.45
2022-08-09T06:54:18.161Z,58.32
2022-08-09T06:56:47.352Z,58.17
2022-08-09T07:00:54.267Z,58.23
2022-08-09T07:02:04.407Z,58.19
2022-08-09T07:04:32.596Z,58.30
2022-08-09T07:07:00.185Z,58.40
2022-08-09T07:09:54.954Z,58.19
2022-08-09T07:12:17.996Z,57.94
2022-08-09T07:14:51.053Z,57.83
2022-08-09T07:17:20.181Z,58.03
2022-08-09T07:19:50.847Z,58.02
2022-08-09T07:22:34.946Z,58.33
2022-08-09T07:25:09.682Z,57.95
2022-08-09T07:27:43.113Z,57.71
2022-08-09T07:30:21.734Z,57.72
2022-08-09T07:32:52.449Z,57.18
2022-08-09T07:35:19.648Z,56.75
2022-08-09T07:37:49.127Z,56.75
2022-08-09T07:40:20.485Z,56.23
2022-08-09T07:42:59.971Z,56.29
2022-08-09T07:45:40.257Z,56.39
2022-08-09T07:48:29.590Z,56.35
2022-08-09T07:51:09.639Z,55.95
2022-08-09T07:54:05.671Z,55.43
2022-08-09T07:56:36.951Z,54.49
2022-08-09T07:59:12.490Z,54.52
2022-08-09T08:01:43.213Z,54.24
2022-08-09T08:04:20.287Z,54.36
2022-08-09T08:07:00.142Z,54.66
2022-08-09T08:09:42.955Z,54.57
2022-08-09T08:12:27.954Z,54.47
2022-08-09T08:14:56.167Z,54.11
2022-08-09T08:17:54.197Z,53.52
2022-08-09T08:20:13.271Z,53.06
2022-08-09T08:22:41.150Z,52.85
2022-08-09T08:25:13.516Z,52.35
2022-08-09T08:27:43.096Z,52.54
2022-08-09T08:30:13.852Z,52.45
2022-08-09T08:32:53.514Z,52.47
2022-08-09T08:35:22.270Z,51.53
2022-08-09T08:38:02.110Z,51.21
2022-08-09T08:40:36.895Z,50.64
2022-08-09T08:43:08.917Z,50.51
2022-08-09T08:45:59.616Z,50.90
2022-08-09T08:48:38.172Z,50.48
2022-08-09T08:51:18.472Z,50.57
2022-08-09T08:54:03.289Z,50.01
2022-08-09T08:56:38.214Z,49.47
2022-08-09T08:59:19.939Z,49.04
2022-08-09T09:01:53.181Z,48.82
2022-08-09T09:04:31.952Z,48.94
2022-08-09T09:07:10.373Z,48.79
2022-08-09T09:09:59.653Z,48.76
2022-08-09T09:12:34.341Z,48.64
2022-08-09T09:15:03.771Z,48.45
2022-08-09T09:17:48.652Z,48.49
2022-08-09T09:20:21.195Z,48.36
2022-08-09T09:23:01.996Z,47.89
2022-08-09T09:26:03.500Z,47.88
2022-08-09T09:28:21.407Z,47.86
2022-08-09T09:31:17.502Z,47.37
2022-08-09T09:34:21.272Z,46.57
2022-08-09T09:36:54.259Z,46.42
2022-08-09T09:39:50.169Z,46.24
2022-08-09T09:42:27.926Z,45.35
2022-08-09T09:45:05.985Z,45.82
2022-08-09T09:47:47.662Z,45.84
2022-08-09T09:50:23.424Z,44.97
2022-08-09T09:52:56.067Z,44.98
2022-08-09T09:55:27.913Z,44.77
2022-08-09T09:58:17.106Z,44.00
2022-08-09T10:00:55.841Z,44.15
2022-08-09T10:03:56.260Z,44.17
2022-08-09T10:06:25.676Z,44.43
2022-08-09T10:09:21.862Z,44.24
2022-08-09T10:12:14.355Z,44.20
2022-08-09T10:14:47.816Z,44.16
2022-08-09T10:17:50.550Z,43.53
2022-08-09T10:20:26.961Z,43.53
2022-08-09T10:23:23.769Z,43.45
2022-08-09T10:26:06.554Z,43.61
2022-08-09T10:28:38.587Z,43.81
2022-08-09T10:34:11.450Z,43.75
2022-08-09T10:36:43.701Z,42.74
2022-08-09T10:39:15.768Z,42.68
2022-08-09T10:41:46.256Z,42.66
2022-08-09T10:44:23.152Z,42.24
2022-08-09T10:48:20.215Z,42.96
2022-08-09T10:50:30.780Z,43.17
2022-08-09T10:53:19.931Z,42.98
2022-08-09T10:55:58.340Z,43.27
2022-08-09T10:58:35.069Z,43.50
2022-08-09T11:03:06.654Z,42.89
2022-08-09T11:04:30.141Z,43.01
2022-08-09T11:06:59.602Z,42.93
2022-08-09T11:09:41.419Z,42.18
2022-08-09T11:12:18.950Z,41.64
2022-08-09T11:14:55.793Z,41.70
2022-08-09T11:17:27.155Z,41.58
2022-08-09T11:20:11.776Z,41.21
2022-08-09T11:22:41.661Z,40.92
2022-08-09T11:25:13.112Z,40.66
2022-08-09T11:28:05.537Z,40.20
2022-08-09T11:30:37.592Z,39.58
2022-08-09T11:33:24.702Z,39.57
2022-08-09T11:36:00.648Z,38.80
2022-08-09T11:38:33.157Z,38.00
2022-08-09T11:41:13.125Z,37.52
2022-08-09T11:43:52.909Z,36.77
2022-08-09T11:46:33.299Z,36.96
2022-08-09T11:49:05.275Z,36.77
2022-08-09T11:52:56.354Z,36.45
2022-08-09T11:55:34.999Z,36.22
2022-08-09T11:58:19.881Z,35.46
2022-08-09T12:01:37.462Z,35.00
2022-08-09T12:04:01.844Z,34.36
2022-08-09T12:06:32.113Z,33.40
2022-08-09T12:09:01.775Z,32.93
2022-08-09T12:11:30.211Z,32.81
2022-08-09T12:14:28.761Z,32.77
2022-08-09T12:16:59.079Z,32.95
2022-08-09T12:19:32.223Z,32.69
2022-08-09T12:22:06.331Z,32.56
2022-08-09T12:24:33.134Z,32.16
2022-08-09T12:29:14.327Z,31.95
2022-08-09T12:30:00.039Z,31.78
2022-08-09T12:32:32.047Z,31.82
2022-08-09T12:35:04.609Z,31.67
2022-08-09T12:37:49.981Z,31.47
2022-08-09T12:40:19.081Z,31.41
2022-08-09T12:42:50.499Z,31.29
2022-08-09T12:45:32.725Z,31.07
2022-08-09T12:48:11.051Z,31.44
2022-08-09T12:50:53.814Z,31.33
2022-08-09T12:53:38.601Z,31.49
2022-08-09T12:56:37.027Z,32.12
2022-08-09T12:59:14.022Z,32.42
2022-08-09T13:01:49.847Z,32.39
2022-08-09T13:04:37.039Z,32.65
2022-08-09T13:07:14.731Z,32.87
2022-08-09T13:09:43.278Z,33.28
2022-08-09T13:12:20.277Z,33.80
2022-08-09T13:14:53.783Z,34.13
2022-08-09T13:17:44.489Z,34.44
2022-08-09T13:20:16.308Z,34.20
2022-08-09T13:23:05.801Z,33.98
2022-08-09T13:25:42.441Z,34.04
2022-08-09T13:28:18.842Z,34.40
2022-08-09T13:32:14.018Z,34.73
2022-08-09T13:33:55.086Z,35.45
2022-08-09T13:36:37.871Z,35.55
2022-08-09T13:41:55.144Z,36.17
2022-08-09T13:42:00.913Z,36.40
2022-08-09T13:44:29.411Z,36.44
2022-08-09T13:47:26.575Z,36.85
2022-08-09T13:49:57.532Z,36.91
2022-08-09T13:52:28.684Z,36.78
2022-08-09T13:55:00.935Z,36.95
2022-08-09T13:57:40.048Z,36.50
2022-08-09T14:00:15.472Z,35.63
2022-08-09T14:03:03.732Z,35.53
2022-08-09T14:05:59.767Z,34.33
2022-08-09T14:08:28.091Z,34.42
2022-08-09T14:10:55.906Z,33.85
2022-08-09T14:14:16.305Z,33.59
2022-08-09T14:16:15.580Z,33.25
2022-08-09T14:18:49.811Z,33.00
2022-08-09T14:21:22.636Z,32.22
2022-08-09T14:23:56.539Z,31.63
2022-08-09T14:26:30.483Z,31.61
2022-08-09T14:29:07.814Z,31.58
2022-08-09T14:32:19.604Z,31.74
2022-08-09T14:34:56.777Z,31.76
2022-08-09T14:37:28.344Z,31.65
2022-08-09T14:40:28.211Z,31.61
2022-08-09T14:43:10.581Z,31.40
2022-08-09T14:46:55.436Z,31.41
2022-08-09T14:48:32.431Z,31.40
2022-08-09T14:50:59.757Z,31.74
2022-08-09T14:53:26.534Z,31.67
2022-08-09T14:55:53.566Z,31.86
2022-08-09T14:58:21.536Z,31.67
2022-08-09T15:00:51.142Z,31.31
2022-08-09T15:03:20.619Z,31.32
2022-08-09T15:05:51.422Z,31.40
2022-08-09T15:08:24.192Z,31.09
2022-08-09T15:11:00.494Z,31.73
2022-08-09T15:13:47.861Z,31.29
2022-08-09T15:16:15.931Z,31.12
2022-08-09T15:18:43.054Z,31.14
2022-08-09T15:21:57.382Z,30.71
2022-08-09T15:24:09.147Z,30.47
2022-08-09T15:26:45.142Z,30.72
2022-08-09T15:30:48.536Z,30.63
2022-08-09T15:31:59.825Z,30.43
2022-08-09T15:34:34.469Z,30.25
2022-08-09T15:37:23.631Z,30.45
2022-08-09T15:39:53.841Z,30.73
2022-08-09T15:42:21.915Z,30.66
2022-08-09T15:44:49.963Z,30.89
2022-08-09T15:47:22.842Z,31.07
2022-08-09T15:50:04.358Z,31.49
2022-08-09T15:52:34.534Z,31.79
2022-08-09T15:55:04.618Z,31.92
2022-08-09T15:57:34.480Z,32.37
2022-08-09T16:00:14.522Z,32.90
2022-08-09T16:02:53.533Z,33.13
2022-08-09T16:05:23.879Z,33.33
2022-08-09T16:07:51.275Z,33.75
2022-08-09T16:10:38.573Z,34.03
2022-08-09T16:13:21.111Z,34.09
2022-08-09T16:16:10.698Z,34.12
2022-08-09T16:18:45.173Z,34.29
2022-08-09T16:21:17.533Z,34.46
2022-08-09T16:23:55.688Z,34.39
2022-08-09T16:26:34.778Z,34.58
2022-08-09T16:29:11.736Z,34.84
2022-08-09T16:32:19.749Z,34.96
2022-08-09T16:34:56.152Z,34.85
2022-08-09T16:37:20.442Z,35.03
2022-08-09T16:40:10.077Z,35.21
2022-08-09T16:42:37.849Z,35.29
2022-08-09T16:45:07.820Z,35.16
2022-08-09T16:48:39.464Z,35.33
2022-08-09T16:50:29.302Z,35.71
2022-08-09T16:52:58.011Z,35.93
2022-08-09T16:55:24.947Z,36.41
2022-08-09T16:58:08.841Z,36.84
2022-08-09T17:00:42.875Z,37.05
2022-08-09T17:03:13.184Z,37.35
2022-08-09T17:06:06.739Z,37.62
2022-08-09T17:08:44.475Z,37.76
2022-08-09T17:11:40.812Z,37.96
2022-08-09T17:14:25.467Z,38.44
2022-08-09T17:17:02.990Z,38.64
2022-08-09T17:20:05.980Z,38.73
2022-08-09T17:22:23.948Z,39.03
2022-08-09T17:25:03.479Z,39.43
2022-08-09T17:27:38.216Z,39.76
2022-08-09T17:30:14.167Z,40.21
2022-08-09T17:32:44.218Z,40.19
2022-08-09T17:35:14.951Z,40.41
2022-08-09T17:38:11.634Z,40.42
2022-08-09T17:40:34.657Z,40.73
2022-08-09T17:43:32.173Z,40.94
2022-08-09T17:46:03.904Z,41.34
2022-08-09T17:48:39.668Z,41.32
2022-08-09T17:51:18.266Z,41.49
2022-08-09T17:53:51.863Z,41.77
2022-08-09T17:56:27.403Z,42.05
2022-08-09T17:59:03.142Z,42.22
2022-08-09T18:01:57.806Z,42.70
2022-08-09T18:04:24.594Z,43.08
2022-08-09T18:06:54.836Z,43.23
2022-08-09T18:09:23.649Z,43.44
2022-08-09T18:12:05.708Z,43.83
2022-08-09T18:14:49.910Z,43.97
2022-08-09T18:18:01.174Z,44.15
2022-08-09T18:21:01.830Z,44.26
2022-08-09T18:22:55.540Z,44.49
2022-08-09T18:25:53.423Z,44.62
2022-08-09T18:28:21.488Z,45.06
2022-08-09T18:30:57.750Z,45.34
2022-08-09T18:33:24.940Z,45.41
2022-08-09T18:35:59.061Z,45.80
2022-08-09T18:38:28.245Z,45.92
2022-08-09T18:40:55.794Z,46.36
2022-08-09T18:43:24.787Z,46.35
2022-08-09T18:46:50.613Z,46.76
2022-08-09T18:48:42.338Z,47.01
2022-08-09T18:51:09.885Z,47.18
2022-08-09T18:53:59.596Z,47.51
2022-08-09T18:56:27.106Z,47.91
2022-08-09T18:58:56.894Z,48.15
2022-08-09T19:01:24.640Z,48.27
2022-08-09T19:04:01.427Z,48.54
2022-08-09T19:06:34.209Z,48.69
2022-08-09T19:09:04.726Z,48.87
2022-08-09T19:11:35.222Z,49.12
2022-08-09T19:14:06.981Z,49.35
2022-08-09T19:16:37.874Z,49.58
2022-08-09T19:19:23.798Z,49.64
2022-08-09T19:22:04.159Z,50.01
2022-08-09T19:24:38.667Z,50.04
2022-08-09T19:27:21.855Z,50.40
2022-08-09T19:30:24.808Z,50.47
2022-08-09T19:32:36.944Z,50.79
2022-08-09T19:35:04.838Z,50.73
2022-08-09T19:37:41.112Z,50.88
2022-08-09T19:40:19.844Z,50.87
2022-08-09T19:42:47.474Z,51.06
2022-08-09T19:45:17.829Z,51.33
2022-08-09T19:47:45.853Z,51.44
2022-08-09T19:50:50.946Z,51.61
2022-08-09T19:53:02.573Z,51.84
2022-08-09T19:56:01.888Z,51.85
2022-08-09T19:58:29.976Z,51.94
2022-08-09T20:00:58.539Z,52.13
2022-08-09T20:04:14.535Z,52.15
2022-08-09T20:06:23.527Z,52.26
2022-08-09T20:08:57.664Z,52.45
2022-08-09T20:11:27.309Z,52.54
2022-08-09T20:14:15.313Z,52.47
2022-08-09T20:16:53.800Z,52.50
2022-08-09T20:19:48.096Z,52.80
2022-08-09T20:22:14.051Z,52.84
2022-08-09T20:24:42.481Z,52.96
2022-08-09T20:27:11.673Z,52.89
2022-08-09T20:29:41.137Z,53.13
2022-08-09T20:32:31.176Z,53.26
2022-08-09T20:34:58.941Z,53.41
2022-08-09T20:38:19.035Z,53.57
2022-08-09T20:40:19.090Z,53.61
2022-08-09T20:42:59.852Z,53.83
2022-08-09T20:46:01.614Z,53.85
2022-08-09T20:48:28.904Z,53.95
2022-08-09T20:50:59.175Z,53.98
2022-08-09T20:53:37.095Z,54.11
2022-08-09T20:56:20.216Z,54.33
2022-08-09T20:58:54.424Z,54.56
2022-08-09T21:01:35.331Z,54.73
2022-08-09T21:05:56.670Z,54.90
2022-08-09T21:07:11.734Z,55.03
2022-08-09T21:09:56.153Z,55.18
2022-08-09T21:15:14.425Z,55.60
2022-08-09T21:18:11.664Z,55.87
2022-08-09T21:20:30.935Z,55.90
2022-08-09T21:22:59.638Z,56.01
2022-08-09T21:25:56.212Z,56.16
2022-08-09T21:28:36.108Z,56.42
2022-08-09T21:31:17.014Z,56.45
2022-08-09T21:33:52.846Z,56.56
2022-08-09T21:36:23.510Z,56.65
2022-08-09T21:38:57.182Z,56.79
2022-08-09T21:42:04.871Z,56.85
2022-08-09T21:44:33.257Z,57.13
2022-08-09T21:47:08.628Z,57.20
2022-08-09T21:49:40.218Z,57.25
2022-08-09T21:52:16.669Z,57.28
2022-08-09T21:54:49.709Z,57.20
2022-08-09T21:57:37.236Z,57.33
2022-08-09T22:00:37.329Z,57.39
2022-08-09T22:03:06.439Z,57.60
2022-08-09T22:05:41.954Z,57.80
2022-08-09T22:08:14.712Z,57.90
2022-08-09T22:11:50.505Z,58.03
2022-08-09T22:13:34.882Z,58.14
2022-08-09T22:16:07.163Z,58.12
2022-08-09T22:18:37.332Z,58.26
2022-08-09T22:21:09.352Z,58.41
2022-08-09T22:24:01.545Z,58.49
2022-08-09T22:26:35.622Z,58.71
2022-08-09T22:29:08.788Z,58.73
2022-08-09T22:31:37.992Z,58.88
2022-08-09T22:34:15.027Z,58.84
2022-08-09T22:36:46.362Z,59.04
2022-08-09T22:39:46.892Z,59.07
2022-08-09T22:42:03.135Z,59.15
2022-08-09T22:44:32.897Z,59.23
2022-08-09T22:48:15.661Z,59.32
2022-08-09T22:49:51.915Z,59.46
2022-08-09T22:52:19.908Z,59.37
2022-08-09T22:54:48.136Z,59.40
2022-08-09T22:57:15.482Z,59.58
2022-08-09T22:59:55.731Z,59.83
2022-08-09T23:02:25.665Z,60.18
2022-08-09T23:04:56.862Z,60.13
2022-08-09T23:10:50.444Z,60.47
2022-08-09T23:13:17.561Z,60.58
2022-08-09T23:16:02.703Z,60.65
2022-08-09T23:22:27.848Z,60.90
2022-08-09T23:29:15.747Z,61.23
2022-08-09T23:31:42.852Z,61.23
2022-08-09T23:34:09.891Z,61.16
2022-08-09T23:36:37.064Z,61.18
2022-08-09T23:39:06.732Z,61.13
2022-08-09T23:41:34.429Z,61.12
2022-08-09T23:44:02.404Z,61.21
2022-08-09T23:46:30.804Z,61.25
2022-08-09T23:48:59.502Z,61.17
2022-08-09T23:51:26.832Z,61.23
2022-08-09T23:53:55.229Z,61.38
2022-08-09T23:56:52.572Z,61.50
2022-08-09T23:59:16.979Z,61.52
